首页
METAR-TAF:

METAR-TAF

机场 :

檳城國際機場

槟城, 马来西亚

纬度: 05-18N, 经度: 100-16E, 海拔: 3米

当前天气观测

该预报发布于47分钟前的12:00 UTC
风速3节,风向北转东北,在北转西北东转东北之间变化
温度 28°C
湿度 79%
气压 1009 hPa
能见度10公里或以上
少量云层高于2500英尺

METAR: WMKP 171200Z 03003KT 330V070 9999 FEW025 28/24 Q1009 NOSIG

时间: 20:47 (12:47 UTC)

预报

该预报发布于1小时和47分钟前的11:00 UTC
预报有效从17日的 12点(UTC)到 18日的 12点(UTC)
风速3节,风向多变
能見度: 9000
少量云层高于2500英尺
几率 30% :
短暂存在
从 17日的 20点(UTC)到 18日的 00点(UTC)
能見度: 6000
少量云层高于1000英尺
少量云层高于1700英尺, 积雨云.
雷暴, 雨
成为
从 18日的 02点(UTC)到 18日的 04点(UTC)
风速8节,风向西转西南
能见度10公里或以上
少量云层高于2000英尺

TAF: WMKP 171100Z 1712/1812 VRB03KT 9000 FEW025 PROB30 TEMPO 1720/1800 6000 TSRA FEW010 FEW017CB BECMG 1802/1804 25008KT 9999 FEW020

超过4000个机场的气象观测和天气预报(METAR&TAF报告)。

可查询的气象台以黄色和红色小点在地图上表示。

将鼠标移到小点上方,可查看气象台名称。

然后点击查看天气观测和预报。

如需切换地图:点击带黑十字的绿色按钮放大地图;点击带横线的绿色按钮缩小地图;或者点击绿色箭头查看邻近地区的地图。


METAR-TAF: